sensor_id;sensor_type;location;lat;lon;timestamp;pressure;altitude;pressure_sealevel;temperature;humidity
42431;BME280;71905;47.466;19.024;2023-12-29T00:00:08;100715.16;;;1.98;100.00
42431;BME280;71905;47.466;19.024;2023-12-29T00:02:37;100717.72;;;1.91;100.00
42431;BME280;71905;47.466;19.024;2023-12-29T00:05:06;100722.88;;;1.89;100.00
42431;BME280;71905;47.466;19.024;2023-12-29T00:07:34;100719.38;;;1.83;100.00
42431;BME280;71905;47.466;19.024;2023-12-29T00:10:03;100721.94;;;1.78;100.00
42431;BME280;71905;47.466;19.024;2023-12-29T00:12:34;100725.38;;;1.75;100.00
42431;BME280;71905;47.466;19.024;2023-12-29T00:15:02;100724.50;;;1.73;100.00
42431;BME280;71905;47.466;19.024;2023-12-29T00:17:30;100723.72;;;1.82;100.00
42431;BME280;71905;47.466;19.024;2023-12-29T00:19:59;100717.56;;;1.77;100.00
42431;BME280;71905;47.466;19.024;2023-12-29T00:22:27;100718.38;;;1.70;100.00
42431;BME280;71905;47.466;19.024;2023-12-29T00:24:55;100712.38;;;1.77;100.00
42431;BME280;71905;47.466;19.024;2023-12-29T00:27:23;100695.06;;;1.81;100.00
42431;BME280;71905;47.466;19.024;2023-12-29T00:29:54;100703.66;;;1.72;100.00
42431;BME280;71905;47.466;19.024;2023-12-29T00:32:22;100695.88;;;1.76;100.00
42431;BME280;71905;47.466;19.024;2023-12-29T00:34:50;100695.00;;;1.77;100.00
42431;BME280;71905;47.466;19.024;2023-12-29T00:37:18;100692.44;;;1.79;100.00
42431;BME280;71905;47.466;19.024;2023-12-29T00:39:46;100693.31;;;1.78;100.00
42431;BME280;71905;47.466;19.024;2023-12-29T00:42:14;100701.06;;;1.76;100.00
42431;BME280;71905;47.466;19.024;2023-12-29T00:44:42;100697.66;;;1.82;100.00
42431;BME280;71905;47.466;19.024;2023-12-29T00:47:12;100703.75;;;1.84;100.00
42431;BME280;71905;47.466;19.024;2023-12-29T00:49:41;100702.03;;;1.86;100.00
42431;BME280;71905;47.466;19.024;2023-12-29T00:52:09;100697.69;;;1.85;100.00
42431;BME280;71905;47.466;19.024;2023-12-29T00:54:37;100697.72;;;1.90;100.00
42431;BME280;71905;47.466;19.024;2023-12-29T00:57:05;100697.72;;;1.90;100.00
42431;BME280;71905;47.466;19.024;2023-12-29T00:59:36;100697.78;;;1.94;100.00
42431;BME280;71905;47.466;19.024;2023-12-29T01:02:05;100689.09;;;1.95;100.00
42431;BME280;71905;47.466;19.024;2023-12-29T01:04:37;100685.63;;;1.98;100.00
42431;BME280;71905;47.466;19.024;2023-12-29T01:07:06;100682.13;;;1.93;100.00
42431;BME280;71905;47.466;19.024;2023-12-29T01:09:37;100681.97;;;1.73;100.00
42431;BME280;71905;47.466;19.024;2023-12-29T01:12:07;100691.47;;;1.69;100.00
42431;BME280;71905;47.466;19.024;2023-12-29T01:14:35;100693.16;;;1.63;100.00
42431;BME280;71905;47.466;19.024;2023-12-29T01:17:03;100698.41;;;1.67;100.00
42431;BME280;71905;47.466;19.024;2023-12-29T01:19:36;100701.91;;;1.72;100.00
42431;BME280;71905;47.466;19.024;2023-12-29T01:22:04;100702.81;;;1.76;100.00
42431;BME280;71905;47.466;19.024;2023-12-29T01:24:33;100702.78;;;1.74;100.00
42431;BME280;71905;47.466;19.024;2023-12-29T01:27:11;100701.03;;;1.72;100.00
42431;BME280;71905;47.466;19.024;2023-12-29T01:29:39;100694.19;;;1.79;100.00
42431;BME280;71905;47.466;19.024;2023-12-29T01:32:09;100699.31;;;1.74;100.00
42431;BME280;71905;47.466;19.024;2023-12-29T01:34:39;100695.00;;;1.76;100.00
42431;BME280;71905;47.466;19.024;2023-12-29T01:37:08;100691.50;;;1.74;100.00
42431;BME280;71905;47.466;19.024;2023-12-29T01:39:36;100685.44;;;1.73;100.00
42431;BME280;71905;47.466;19.024;2023-12-29T01:42:06;100676.63;;;1.58;100.00
42431;BME280;71905;47.466;19.024;2023-12-29T01:44:34;100676.53;;;1.52;100.00
42431;BME280;71905;47.466;19.024;2023-12-29T01:47:04;100668.81;;;1.58;100.00
42431;BME280;71905;47.466;19.024;2023-12-29T01:49:34;100677.47;;;1.57;100.00
42431;BME280;71905;47.466;19.024;2023-12-29T01:52:07;100671.44;;;1.62;100.00
42431;BME280;71905;47.466;19.024;2023-12-29T01:54:36;100671.44;;;1.59;100.00
42431;BME280;71905;47.466;19.024;2023-12-29T01:57:06;100674.03;;;1.59;100.00
42431;BME280;71905;47.466;19.024;2023-12-29T01:59:35;100661.91;;;1.64;100.00
42431;BME280;71905;47.466;19.024;2023-12-29T02:02:15;100674.03;;;1.61;100.00
42431;BME280;71905;47.466;19.024;2023-12-29T02:05:04;100656.75;;;1.67;100.00
42431;BME280;71905;47.466;19.024;2023-12-29T02:07:34;100655.81;;;1.59;100.00
42431;BME280;71905;47.466;19.024;2023-12-29T02:10:03;100673.19;;;1.63;100.00
42431;BME280;71905;47.466;19.024;2023-12-29T02:12:31;100651.56;;;1.70;100.00
42431;BME280;71905;47.466;19.024;2023-12-29T02:15:00;100658.53;;;1.73;100.00
42431;BME280;71905;47.466;19.024;2023-12-29T02:17:31;100665.47;;;1.74;100.00
42431;BME280;71905;47.466;19.024;2023-12-29T02:20:05;100659.34;;;1.66;100.00
42431;BME280;71905;47.466;19.024;2023-12-29T02:22:34;100663.69;;;1.65;100.00
42431;BME280;71905;47.466;19.024;2023-12-29T02:25:05;100656.75;;;1.69;100.00
42431;BME280;71905;47.466;19.024;2023-12-29T02:27:43;100648.97;;;1.73;100.00
42431;BME280;71905;47.466;19.024;2023-12-29T02:30:23;100644.53;;;1.59;100.00
42431;BME280;71905;47.466;19.024;2023-12-29T02:32:55;100634.09;;;1.56;100.00
42431;BME280;71905;47.466;19.024;2023-12-29T02:35:27;100641.84;;;1.50;100.00
42431;BME280;71905;47.466;19.024;2023-12-29T02:37:56;100647.78;;;1.38;100.00
42431;BME280;71905;47.466;19.024;2023-12-29T02:40:26;100649.59;;;1.40;100.00
42431;BME280;71905;47.466;19.024;2023-12-29T02:42:55;100643.47;;;1.38;100.00
42431;BME280;71905;47.466;19.024;2023-12-29T02:45:23;100644.28;;;1.31;100.00
42431;BME280;71905;47.466;19.024;2023-12-29T02:47:51;100638.94;;;1.19;100.00
42431;BME280;71905;47.466;19.024;2023-12-29T02:50:20;100640.75;;;1.26;100.00
42431;BME280;71905;47.466;19.024;2023-12-29T02:52:48;100637.25;;;1.23;100.00
42431;BME280;71905;47.466;19.024;2023-12-29T02:55:16;100639.81;;;1.20;100.00
42431;BME280;71905;47.466;19.024;2023-12-29T02:57:45;100636.38;;;1.21;100.00
42431;BME280;71905;47.466;19.024;2023-12-29T03:00:14;100639.94;;;1.29;100.00
42431;BME280;71905;47.466;19.024;2023-12-29T03:02:42;100639.94;;;1.32;100.00
42431;BME280;71905;47.466;19.024;2023-12-29T03:05:11;100633.88;;;1.31;100.00
42431;BME280;71905;47.466;19.024;2023-12-29T03:07:39;100622.59;;;1.31;100.00
42431;BME280;71905;47.466;19.024;2023-12-29T03:10:08;100617.41;;;1.32;100.00
42431;BME280;71905;47.466;19.024;2023-12-29T03:12:36;100611.34;;;1.36;100.00
42431;BME280;71905;47.466;19.024;2023-12-29T03:15:07;100612.22;;;1.38;100.00
42431;BME280;71905;47.466;19.024;2023-12-29T03:17:35;100608.72;;;1.30;100.00
42431;BME280;71905;47.466;19.024;2023-12-29T03:20:04;100613.09;;;1.39;100.00
42431;BME280;71905;47.466;19.024;2023-12-29T03:22:32;100613.16;;;1.45;100.00
42431;BME280;71905;47.466;19.024;2023-12-29T03:25:00;100610.53;;;1.40;100.00
42431;BME280;71905;47.466;19.024;2023-12-29T03:27:29;100613.97;;;1.39;100.00
42431;BME280;71905;47.466;19.024;2023-12-29T03:29:57;100626.19;;;1.43;100.00
42431;BME280;71905;47.466;19.024;2023-12-29T03:32:27;100622.75;;;1.51;100.00
42431;BME280;71905;47.466;19.024;2023-12-29T03:34:55;100627.09;;;1.52;100.00
42431;BME280;71905;47.466;19.024;2023-12-29T03:37:23;100630.59;;;1.54;100.00
42431;BME280;71905;47.466;19.024;2023-12-29T03:39:51;100628.91;;;1.57;100.00
42431;BME280;71905;47.466;19.024;2023-12-29T03:42:19;100625.41;;;1.55;100.00
42431;BME280;71905;47.466;19.024;2023-12-29T03:44:47;100615.00;;;1.55;100.00
42431;BME280;71905;47.466;19.024;2023-12-29T03:47:15;100612.38;;;1.54;100.00
42431;BME280;71905;47.466;19.024;2023-12-29T03:49:45;100617.53;;;1.47;100.00
42431;BME280;71905;47.466;19.024;2023-12-29T03:52:13;100613.97;;;1.39;100.00
42431;BME280;71905;47.466;19.024;2023-12-29T03:54:41;100624.25;;;1.24;100.00
42431;BME280;71905;47.466;19.024;2023-12-29T03:57:09;100642.50;;;1.27;100.00
42431;BME280;71905;47.466;19.024;2023-12-29T03:59:39;100636.41;;;1.25;100.00
42431;BME280;71905;47.466;19.024;2023-12-29T04:02:07;100632.94;;;1.26;100.00
42431;BME280;71905;47.466;19.024;2023-12-29T04:04:37;100624.25;;;1.26;100.00
42431;BME280;71905;47.466;19.024;2023-12-29T04:07:07;100632.94;;;1.26;100.00
42431;BME280;71905;47.466;19.024;2023-12-29T04:09:35;100641.59;;;1.24;100.00
42431;BME280;71905;47.466;19.024;2023-12-29T04:12:04;100634.63;;;1.21;100.00
42431;BME280;71905;47.466;19.024;2023-12-29T04:14:32;100626.81;;;1.21;100.00
42431;BME280;71905;47.466;19.024;2023-12-29T04:17:00;100632.88;;;1.17;100.00
42431;BME280;71905;47.466;19.024;2023-12-29T04:19:30;100638.91;;;1.14;100.00
42431;BME280;71905;47.466;19.024;2023-12-29T04:21:59;100631.13;;;1.16;100.00
42431;BME280;71905;47.466;19.024;2023-12-29T04:24:31;100643.28;;;1.17;100.00
42431;BME280;71905;47.466;19.024;2023-12-29T04:27:03;100637.22;;;1.18;100.00
42431;BME280;71905;47.466;19.024;2023-12-29T04:29:31;100646.78;;;1.24;100.00
42431;BME280;71905;47.466;19.024;2023-12-29T04:32:01;100638.88;;;1.13;100.00
42431;BME280;71905;47.466;19.024;2023-12-29T04:34:29;100649.28;;;1.13;100.00
42431;BME280;71905;47.466;19.024;2023-12-29T04:36:57;100631.94;;;1.12;100.00
42431;BME280;71905;47.466;19.024;2023-12-29T04:39:25;100632.00;;;1.16;100.00
42431;BME280;71905;47.466;19.024;2023-12-29T04:41:55;100633.75;;;1.21;100.00
42431;BME280;71905;47.466;19.024;2023-12-29T04:44:23;100640.69;;;1.18;100.00
42431;BME280;71905;47.466;19.024;2023-12-29T04:46:51;100638.97;;;1.22;100.00
42431;BME280;71905;47.466;19.024;2023-12-29T04:49:19;100636.34;;;1.17;100.00
42431;BME280;71905;47.466;19.024;2023-12-29T04:51:48;100635.41;;;1.14;100.00
42431;BME280;71905;47.466;19.024;2023-12-29T04:54:16;100628.56;;;1.21;100.00
42431;BME280;71905;47.466;19.024;2023-12-29T04:56:44;100631.16;;;1.22;100.00
42431;BME280;71905;47.466;19.024;2023-12-29T04:59:13;100627.72;;;1.25;100.00
42431;BME280;71905;47.466;19.024;2023-12-29T05:01:41;100620.72;;;1.14;100.00
42431;BME280;71905;47.466;19.024;2023-12-29T05:04:09;100624.09;;;1.07;100.00
42431;BME280;71905;47.466;19.024;2023-12-29T05:06:37;100637.94;;;1.03;100.00
42431;BME280;71905;47.466;19.024;2023-12-29T05:09:06;100635.22;;;0.94;100.00
42431;BME280;71905;47.466;19.024;2023-12-29T05:11:34;100630.00;;;0.91;100.00
42431;BME280;71905;47.466;19.024;2023-12-29T05:14:01;100641.28;;;0.92;100.00
42431;BME280;71905;47.466;19.024;2023-12-29T05:16:31;100633.47;;;0.92;100.00
42431;BME280;71905;47.466;19.024;2023-12-29T05:18:59;100641.25;;;0.90;100.00
42431;BME280;71905;47.466;19.024;2023-12-29T05:21:27;100636.94;;;0.94;100.00
42431;BME280;71905;47.466;19.024;2023-12-29T05:23:55;100635.22;;;0.94;100.00
42431;BME280;71905;47.466;19.024;2023-12-29T05:26:23;100650.72;;;0.85;100.00
42431;BME280;71905;47.466;19.024;2023-12-29T05:28:51;100649.84;;;0.86;100.00
42431;BME280;71905;47.466;19.024;2023-12-29T05:31:19;100660.28;;;0.87;100.00
42431;BME280;71905;47.466;19.024;2023-12-29T05:33:49;100655.84;;;0.79;100.00
42431;BME280;71905;47.466;19.024;2023-12-29T05:36:17;100650.53;;;0.70;100.00
42431;BME280;71905;47.466;19.024;2023-12-29T05:38:45;100652.25;;;0.68;100.00
42431;BME280;71905;47.466;19.024;2023-12-29T05:41:14;100660.13;;;0.75;100.00
42431;BME280;71905;47.466;19.024;2023-12-29T05:43:42;100671.34;;;0.70;100.00
42431;BME280;71905;47.466;19.024;2023-12-29T05:46:10;100673.09;;;0.72;100.00
42431;BME280;71905;47.466;19.024;2023-12-29T05:48:40;100667.88;;;0.69;100.00
42431;BME280;71905;47.466;19.024;2023-12-29T05:51:10;100673.06;;;0.69;100.00
42431;BME280;71905;47.466;19.024;2023-12-29T05:53:40;100664.38;;;0.66;100.00
42431;BME280;71905;47.466;19.024;2023-12-29T05:56:09;100672.16;;;0.64;100.00
42431;BME280;71905;47.466;19.024;2023-12-29T05:58:37;100666.94;;;0.64;100.00
42431;BME280;71905;47.466;19.024;2023-12-29T06:01:05;100672.19;;;0.69;100.00
42431;BME280;71905;47.466;19.024;2023-12-29T06:03:33;100679.09;;;0.65;100.00
42431;BME280;71905;47.466;19.024;2023-12-29T06:06:07;100676.53;;;0.70;100.00
42431;BME280;71905;47.466;19.024;2023-12-29T06:08:36;100683.50;;;0.72;100.00
42431;BME280;71905;47.466;19.024;2023-12-29T06:11:04;100677.50;;;0.78;100.00
42431;BME280;71905;47.466;19.024;2023-12-29T06:13:33;100683.56;;;0.77;100.00
42431;BME280;71905;47.466;19.024;2023-12-29T06:16:01;100689.56;;;0.74;100.00
42431;BME280;71905;47.466;19.024;2023-12-29T06:18:29;100689.66;;;0.77;100.00
42431;BME280;71905;47.466;19.024;2023-12-29T06:20:57;100692.25;;;0.79;100.00
42431;BME280;71905;47.466;19.024;2023-12-29T06:23:25;100693.16;;;0.82;100.00
42431;BME280;71905;47.466;19.024;2023-12-29T06:25:55;100686.22;;;0.81;100.00
42431;BME280;71905;47.466;19.024;2023-12-29T06:28:23;100683.53;;;0.75;100.00
42431;BME280;71905;47.466;19.024;2023-12-29T06:30:51;100688.69;;;0.71;100.00
42431;BME280;71905;47.466;19.024;2023-12-29T06:33:19;100673.03;;;0.66;100.00
42431;BME280;71905;47.466;19.024;2023-12-29T06:35:47;100679.88;;;0.59;100.00
42431;BME280;71905;47.466;19.024;2023-12-29T06:38:15;100686.78;;;0.57;100.00
42431;BME280;71905;47.466;19.024;2023-12-29T06:40:43;100690.28;;;0.63;100.00
42431;BME280;71905;47.466;19.024;2023-12-29T06:43:14;100696.34;;;0.60;100.00
42431;BME280;71905;47.466;19.024;2023-12-29T06:45:43;100702.41;;;0.62;100.00
42431;BME280;71905;47.466;19.024;2023-12-29T06:48:11;100704.94;;;0.56;100.00
42431;BME280;71905;47.466;19.024;2023-12-29T06:50:40;100709.25;;;0.54;100.00
42431;BME280;71905;47.466;19.024;2023-12-29T06:53:08;100704.91;;;0.53;100.00
42431;BME280;71905;47.466;19.024;2023-12-29T06:55:37;100705.69;;;0.49;100.00
42431;BME280;71905;47.466;19.024;2023-12-29T06:58:06;100710.97;;;0.52;100.00
42431;BME280;71905;47.466;19.024;2023-12-29T07:00:35;100702.06;;;0.38;100.00
42431;BME280;71905;47.466;19.024;2023-12-29T07:03:05;100708.06;;;0.31;100.00
42431;BME280;71905;47.466;19.024;2023-12-29T07:05:35;100696.72;;;0.25;100.00
42431;BME280;71905;47.466;19.024;2023-12-29T07:08:04;100698.47;;;0.26;100.00
42431;BME280;71905;47.466;19.024;2023-12-29T07:10:32;100711.41;;;0.23;100.00
42431;BME280;71905;47.466;19.024;2023-12-29T07:13:00;100708.75;;;0.19;100.00
42431;BME280;71905;47.466;19.024;2023-12-29T07:15:28;100698.28;;;0.14;100.00
42431;BME280;71905;47.466;19.024;2023-12-29T07:17:58;100701.69;;;0.12;100.00
42431;BME280;71905;47.466;19.024;2023-12-29T07:20:26;100685.19;;;0.07;100.00
42431;BME280;71905;47.466;19.024;2023-12-29T07:23:00;100696.56;;;0.15;100.00
42431;BME280;71905;47.466;19.024;2023-12-29T07:25:28;100707.75;;;0.12;100.00
42431;BME280;71905;47.466;19.024;2023-12-29T07:27:56;100712.19;;;0.16;100.00
42431;BME280;71905;47.466;19.024;2023-12-29T07:30:25;100712.31;;;0.25;100.00
42431;BME280;71905;47.466;19.024;2023-12-29T07:32:53;100710.50;;;0.20;100.00
42431;BME280;71905;47.466;19.024;2023-12-29T07:35:23;100711.28;;;0.14;100.00
42431;BME280;71905;47.466;19.024;2023-12-29T07:37:51;100703.53;;;0.17;100.00
42431;BME280;71905;47.466;19.024;2023-12-29T07:40:19;100700.81;;;0.11;100.00
42431;BME280;71905;47.466;19.024;2023-12-29T07:42:47;100692.13;;;0.09;100.00
42431;BME280;71905;47.466;19.024;2023-12-29T07:45:17;100692.13;;;0.09;100.00
42431;BME280;71905;47.466;19.024;2023-12-29T07:47:45;100693.09;;;0.13;100.00
42431;BME280;71905;47.466;19.024;2023-12-29T07:50:13;100693.09;;;0.13;100.00
42431;BME280;71905;47.466;19.024;2023-12-29T07:52:43;100698.28;;;0.14;100.00
42431;BME280;71905;47.466;19.024;2023-12-29T07:55:11;100694.81;;;0.14;100.00
42431;BME280;71905;47.466;19.024;2023-12-29T07:57:40;100687.97;;;0.20;100.00
42431;BME280;71905;47.466;19.024;2023-12-29T08:00:09;100689.75;;;0.23;100.00
42431;BME280;71905;47.466;19.024;2023-12-29T08:02:39;100692.34;;;0.23;100.00
42431;BME280;71905;47.466;19.024;2023-12-29T08:05:07;100694.19;;;0.28;100.00
42431;BME280;71905;47.466;19.024;2023-12-29T08:07:36;100700.25;;;0.29;100.00
42431;BME280;71905;47.466;19.024;2023-12-29T08:10:07;100699.44;;;0.35;100.00
42431;BME280;71905;47.466;19.024;2023-12-29T08:12:36;100710.72;;;0.37;100.00
42431;BME280;71905;47.466;19.024;2023-12-29T08:15:05;100702.84;;;0.31;100.00
42431;BME280;71905;47.466;19.024;2023-12-29T08:17:33;100704.56;;;0.28;100.00
42431;BME280;71905;47.466;19.024;2023-12-29T08:20:01;100706.19;;;0.23;100.00
42431;BME280;71905;47.466;19.024;2023-12-29T08:22:30;100695.81;;;0.23;100.00
42431;BME280;71905;47.466;19.024;2023-12-29T08:25:00;100708.91;;;0.29;100.00
42431;BME280;71905;47.466;19.024;2023-12-29T08:27:30;100711.53;;;0.31;100.00
42431;BME280;71905;47.466;19.024;2023-12-29T08:29:57;100702.94;;;0.37;100.00
42431;BME280;71905;47.466;19.024;2023-12-29T08:32:26;100711.69;;;0.42;100.00
42431;BME280;71905;47.466;19.024;2023-12-29T08:34:54;100703.16;;;0.52;100.00
42431;BME280;71905;47.466;19.024;2023-12-29T08:37:22;100711.91;;;0.58;100.00
42431;BME280;71905;47.466;19.024;2023-12-29T08:39:50;100712.88;;;0.65;100.00
42431;BME280;71905;47.466;19.024;2023-12-29T08:42:18;100717.28;;;0.72;100.00
42431;BME280;71905;47.466;19.024;2023-12-29T08:44:48;100713.03;;;0.77;100.00
42431;BME280;71905;47.466;19.024;2023-12-29T08:47:16;100721.78;;;0.84;100.00
42431;BME280;71905;47.466;19.024;2023-12-29T08:49:44;100714.13;;;0.95;100.00
42431;BME280;71905;47.466;19.024;2023-12-29T08:52:12;100714.22;;;1.04;100.00
42431;BME280;71905;47.466;19.024;2023-12-29T08:54:40;100712.53;;;1.09;100.00
42431;BME280;71905;47.466;19.024;2023-12-29T08:57:09;100704.72;;;1.06;100.00
42431;BME280;71905;47.466;19.024;2023-12-29T08:59:37;100700.41;;;1.11;100.00
42431;BME280;71905;47.466;19.024;2023-12-29T09:02:06;100710.91;;;1.17;100.00
42431;BME280;71905;47.466;19.024;2023-12-29T09:04:34;100705.78;;;1.26;100.00
42431;BME280;71905;47.466;19.024;2023-12-29T09:07:02;100706.75;;;1.36;100.00
42431;BME280;71905;47.466;19.024;2023-12-29T09:09:32;100711.19;;;1.44;100.00
42431;BME280;71905;47.466;19.024;2023-12-29T09:12:00;100709.53;;;1.51;100.00
42431;BME280;71905;47.466;19.024;2023-12-29T09:14:28;100709.59;;;1.59;100.00
42431;BME280;71905;47.466;19.024;2023-12-29T09:17:02;100707.09;;;1.69;100.00
42431;BME280;71905;47.466;19.024;2023-12-29T09:19:31;100709.81;;;1.80;100.00
42431;BME280;71905;47.466;19.024;2023-12-29T09:22:06;100701.19;;;1.90;100.00
42431;BME280;71905;47.466;19.024;2023-12-29T09:24:34;100689.13;;;2.00;100.00
42431;BME280;71905;47.466;19.024;2023-12-29T09:27:03;100692.66;;;2.10;100.00
42431;BME280;71905;47.466;19.024;2023-12-29T09:29:31;100686.66;;;2.20;100.00
42431;BME280;71905;47.466;19.024;2023-12-29T09:31:59;100682.41;;;2.31;100.00
42431;BME280;71905;47.466;19.024;2023-12-29T09:34:27;100698.13;;;2.42;100.00
42431;BME280;71905;47.466;19.024;2023-12-29T09:36:57;100692.94;;;2.51;100.00
42431;BME280;71905;47.466;19.024;2023-12-29T09:39:25;100699.94;;;2.59;100.00
42431;BME280;71905;47.466;19.024;2023-12-29T09:41:54;100700.00;;;2.67;100.00
42431;BME280;71905;47.466;19.024;2023-12-29T09:44:28;100706.09;;;2.77;100.00
42431;BME280;71905;47.466;19.024;2023-12-29T09:46:58;100705.28;;;2.85;100.00
42431;BME280;71905;47.466;19.024;2023-12-29T09:49:37;100700.06;;;2.90;100.00
42431;BME280;71905;47.466;19.024;2023-12-29T09:52:07;100706.16;;;2.92;100.00
42431;BME280;71905;47.466;19.024;2023-12-29T09:54:37;100701.00;;;3.01;100.00
42431;BME280;71905;47.466;19.024;2023-12-29T09:57:07;100698.41;;;3.06;100.00
42431;BME280;71905;47.466;19.024;2023-12-29T09:59:35;100688.84;;;3.09;100.00
42431;BME280;71905;47.466;19.024;2023-12-29T10:02:23;100682.75;;;3.15;100.00
42431;BME280;71905;47.466;19.024;2023-12-29T10:04:51;100681.06;;;3.21;100.00
42431;BME280;71905;47.466;19.024;2023-12-29T10:07:24;100664.53;;;3.24;100.00
42431;BME280;71905;47.466;19.024;2023-12-29T10:09:55;100659.34;;;3.33;100.00
42431;BME280;71905;47.466;19.024;2023-12-29T10:12:23;100661.94;;;3.39;100.00
42431;BME280;71905;47.466;19.024;2023-12-29T10:14:59;100653.25;;;3.46;100.00
42431;BME280;71905;47.466;19.024;2023-12-29T10:17:38;100653.25;;;3.54;100.00
42431;BME280;71905;47.466;19.024;2023-12-29T10:20:15;100648.91;;;3.67;100.00
42431;BME280;71905;47.466;19.024;2023-12-29T10:22:51;100641.06;;;3.77;100.00
42431;BME280;71905;47.466;19.024;2023-12-29T10:25:23;100634.97;;;3.84;100.00
42431;BME280;71905;47.466;19.024;2023-12-29T10:27:51;100641.06;;;3.96;100.00
42431;BME280;71905;47.466;19.024;2023-12-29T10:30:19;100635.81;;;4.05;100.00
42431;BME280;71905;47.466;19.024;2023-12-29T10:32:59;100640.16;;;4.20;100.00
42431;BME280;71905;47.466;19.024;2023-12-29T10:35:31;100635.75;;;4.35;100.00
42431;BME280;71905;47.466;19.024;2023-12-29T10:38:15;100637.50;;;4.46;100.00
42431;BME280;71905;47.466;19.024;2023-12-29T10:40:44;100624.38;;;4.52;100.00
42431;BME280;71905;47.466;19.024;2023-12-29T10:43:12;100625.19;;;4.66;100.00
42431;BME280;71905;47.466;19.024;2023-12-29T10:45:40;100613.81;;;4.76;100.00
42431;BME280;71905;47.466;19.024;2023-12-29T10:48:11;100599.81;;;4.80;100.00
42431;BME280;71905;47.466;19.024;2023-12-29T10:50:43;100600.63;;;4.91;100.00
42431;BME280;71905;47.466;19.024;2023-12-29T10:53:14;100603.22;;;4.99;100.00
42431;BME280;71905;47.466;19.024;2023-12-29T10:55:43;100590.09;;;5.05;100.00
42431;BME280;71905;47.466;19.024;2023-12-29T10:58:16;100586.53;;;5.14;100.00
42431;BME280;71905;47.466;19.024;2023-12-29T11:00:44;100590.84;;;5.24;100.00
42431;BME280;71905;47.466;19.024;2023-12-29T11:03:15;100580.31;;;5.31;100.00
42431;BME280;71905;47.466;19.024;2023-12-29T11:05:43;100582.81;;;5.45;100.00
42431;BME280;71905;47.466;19.024;2023-12-29T11:08:18;100580.13;;;5.53;100.00
42431;BME280;71905;47.466;19.024;2023-12-29T11:10:48;100576.47;;;5.71;100.00
42431;BME280;71905;47.466;19.024;2023-12-29T11:13:16;100566.81;;;5.79;100.00
42431;BME280;71905;47.466;19.024;2023-12-29T11:15:47;100558.00;;;5.86;100.00
42431;BME280;71905;47.466;19.024;2023-12-29T11:18:16;100554.50;;;5.90;100.00
42431;BME280;71905;47.466;19.024;2023-12-29T11:20:45;100551.75;;;6.02;100.00
42431;BME280;71905;47.466;19.024;2023-12-29T11:23:15;100556.03;;;6.09;100.00
42431;BME280;71905;47.466;19.024;2023-12-29T11:25:44;100553.28;;;6.23;100.00
42431;BME280;71905;47.466;19.024;2023-12-29T11:28:13;100553.22;;;6.26;100.00
42431;BME280;71905;47.466;19.024;2023-12-29T11:30:42;100553.13;;;6.34;100.00
42431;BME280;71905;47.466;19.024;2023-12-29T11:33:15;100545.97;;;6.46;100.00
42431;BME280;71905;47.466;19.024;2023-12-29T11:35:48;100529.22;;;6.57;100.00
42431;BME280;71905;47.466;19.024;2023-12-29T11:38:25;100532.53;;;6.69;100.00
42431;BME280;71905;47.466;19.024;2023-12-29T11:40:59;100533.34;;;6.76;100.00
42431;BME280;71905;47.466;19.024;2023-12-29T11:43:30;100523.59;;;6.83;100.00
42431;BME280;71905;47.466;19.024;2023-12-29T11:45:58;100520.81;;;6.93;100.00
42431;BME280;71905;47.466;19.024;2023-12-29T11:48:54;100515.34;;;7.07;100.00
42431;BME280;71905;47.466;19.024;2023-12-29T11:51:30;100516.84;;;7.23;100.00
42431;BME280;71905;47.466;19.024;2023-12-29T11:54:01;100511.31;;;7.40;100.00
42431;BME280;71905;47.466;19.024;2023-12-29T11:56:35;100502.25;;;7.58;100.00
42431;BME280;71905;47.466;19.024;2023-12-29T11:59:13;100498.50;;;7.71;100.00
42431;BME280;71905;47.466;19.024;2023-12-29T12:01:42;100487.59;;;7.91;100.00
42431;BME280;71905;47.466;19.024;2023-12-29T12:04:36;100496.84;;;8.10;100.00
42431;BME280;71905;47.466;19.024;2023-12-29T12:07:08;100493.09;;;8.22;100.00
42431;BME280;71905;47.466;19.024;2023-12-29T12:09:37;100482.16;;;8.43;100.00
42431;BME280;71905;47.466;19.024;2023-12-29T12:12:05;100481.66;;;8.66;100.00
42431;BME280;71905;47.466;19.024;2023-12-29T12:14:47;100471.56;;;8.85;100.00
42431;BME280;71905;47.466;19.024;2023-12-29T12:17:30;100464.19;;;8.99;100.00
42431;BME280;71905;47.466;19.024;2023-12-29T12:20:01;100467.56;;;9.06;100.00
42431;BME280;71905;47.466;19.024;2023-12-29T12:22:31;100468.22;;;9.14;100.00
42431;BME280;71905;47.466;19.024;2023-12-29T12:25:05;100460.94;;;9.24;100.00
42431;BME280;71905;47.466;19.024;2023-12-29T12:27:37;100462.38;;;9.37;100.00
42431;BME280;71905;47.466;19.024;2023-12-29T12:30:06;100451.47;;;9.51;100.00
42431;BME280;71905;47.466;19.024;2023-12-29T12:32:37;100445.84;;;9.63;100.00
42431;BME280;71905;47.466;19.024;2023-12-29T12:35:13;100440.53;;;9.66;100.00
42431;BME280;71905;47.466;19.024;2023-12-29T12:37:45;100439.28;;;9.79;100.00
42431;BME280;71905;47.466;19.024;2023-12-29T12:40:26;100442.19;;;9.99;100.00
42431;BME280;71905;47.466;19.024;2023-12-29T12:42:54;100432.84;;;10.19;100.00
42431;BME280;71905;47.466;19.024;2023-12-29T12:45:25;100434.91;;;10.39;100.00
42431;BME280;71905;47.466;19.024;2023-12-29T12:48:00;100439.34;;;10.07;100.00
42431;BME280;71905;47.466;19.024;2023-12-29T12:50:29;100445.31;;;9.83;100.00
42431;BME280;71905;47.466;19.024;2023-12-29T12:52:57;100446.38;;;9.76;100.00